Aviation Digital Data Service (ADDS)

Output produced by METARs form (0944 UTC 25 June 2018)
found at http://www.aviationweather.gov/adds/metars/
 
KMEI 250858Z AUTO 20006KT 10SM CLR 26/24 A3000 RMK AO2 SLP153 T02560239 58009 $
KMEI 250758Z AUTO 19005KT 10SM CLR 26/24 A3001 RMK AO2 SLP158 T02610239 $
KMEI 250658Z AUTO 20004KT 10SM CLR 27/24 A3002 RMK AO2 SLP160 T02670244 $
KMEI 250558Z AUTO 20005KT 10SM CLR 27/24 A3002 RMK AO2 SLP162 T02670244 10333 20267 403560239 51004 $
KMEI 250458Z AUTO 21004KT 10SM CLR 27/24 A3002 RMK AO2 SLP162 T02670244 $
KMEI 250358Z AUTO 19004KT 10SM FEW049 SCT060 27/24 A3002 RMK AO2 SLP161 T02720244 $
KMEI 250258Z 00000KT 10SM CLR 28/24 A3001 RMK AO2 SLP158 T02780244 53018 $
KMEI 250158Z 00000KT 10SM CLR 28/25 A2999 RMK AO2 SLP152 T02830250 $
KMEI 250058Z 22003KT 10SM CLR 31/25 A2997 RMK AO2 SLP143 T03060250 $
KMEI 242358Z 17005KT 10SM CLR 33/23 A2996 RMK AO2 SLP139 T03330233 10356 20322 55006 $
KMEI 242258Z 17006KT 10SM SCT047 SCT065 33/23 A2996 RMK AO2 LTG DSNT SW SLP139 T03330228 $
KMEI 242158Z COR VRB04KT 10SM SCT049 34/23 A2996 RMK AO2 SLP142 T03440228 $
KMEI 242058Z VRB04KT 10SM SCT045 35/23 A2998 RMK AO2 SLP146 T03500228 58018 $
KMEI 241958Z 22005KT 10SM SCT042 35/22 A3000 RMK AO2 SLP152 T03500222 $
KMEI 241858Z 28005KT 10SM FEW041 SCT050 SCT060 33/22 A3001 RMK AO2 SLP158 T03330222 $
KMEI 241758Z 27009KT 10SM SCT041 SCT055 BKN070 33/22 A3003 RMK AO2 SLP164 T03280222 10339 20250 58003 $
KMEI 241658Z 23007KT 10SM CLR 33/23 A3003 RMK AO2 SLP165 T03280228 $
KMEI 241558Z 25010KT 10SM FEW025 32/23 A3004 RMK AO2 SLP168 T03170233 $
KMEI 241458Z 26009KT 10SM SCT022 BKN036 29/23 A3004 RMK AO2 SLP167 T02940233 50007 $
KMEI 241454Z 28007KT 10SM SCT022 BKN029 BKN038 30/24 A3004 RMK AO2 $
KMEI 241442Z 25007KT 10SM SCT020 SCT025 BKN040 30/24 A3004 RMK AO2 T03000239 $
KMEI 241358Z 25008G15KT 10SM BKN017 29/24 A3003 RMK AO2 SLP164 T02890239 $
KMEI 241346Z 23008KT 10SM BKN015 28/24 A3003 RMK AO2 T02830239 $
KMEI 241258Z 23007KT 10SM SCT009 27/24 A3002 RMK AO2 SLP160 T02720239 $
KMEI 241243Z 20006KT 10SM BKN009 27/24 A3001 RMK AO2 T02670239 $
KMEI 241207Z 19005KT 10SM BKN011 25/24 A3000 RMK AO2 T02500239 $
KMEI 241158Z 19005KT 10SM SCT011 25/23 A3000 RMK AO2 SLP154 T02500233 10261 20239 51010 $
KMEI 241058Z 00000KT 9SM CLR 24/23 A2999 RMK AO2 SLP150 T02440228 $
KMEI 240958Z AUTO 00000KT 10SM CLR 25/23 A2998 RMK AO2 SLP148 T02500233 $
KMEI 240858Z AUTO 00000KT 10SM CLR 25/23 A2997 RMK AO2 SLP143 T02500233 53013 $
KMEI 240758Z AUTO 20004KT 10SM CLR 25/23 A2995 RMK AO2 SLP136 T02500233 $
KMEI 240658Z AUTO 20004KT 10SM CLR 26/23 A2995 RMK AO2 SLP136 T02560233 $
KMEI 240558Z AUTO 19006KT 10SM CLR 26/23 A2993 RMK AO2 SLP130 T02610233 10322 20256 403440217 51001 $
KMEI 240458Z AUTO 20004KT 10SM CLR 26/23 A2993 RMK AO2 SLP130 T02560233 $
KMEI 240358Z AUTO 21004KT 10SM CLR 26/23 A2994 RMK AO2 SLP132 T02560233 $
KMEI 240258Z 20004KT 10SM FEW055 27/24 A2993 RMK AO2 SLP129 T02670239 53020 $
KMEI 240158Z 00000KT 10SM CLR 27/24 A2990 RMK AO2 SLP121 T02670239 $
KMEI 240058Z 21003KT 10SM CLR 30/23 A2988 RMK AO2 SLP113 T03000233 $
KMEI 232358Z 19007KT 10SM CLR 32/22 A2987 RMK AO2 SLP109 T03220217 10344 20322 56008 $
KMEI 232258Z 18009KT 10SM FEW049 33/22 A2987 RMK AO2 SLP110 T03280217 $
KMEI 232158Z 18009KT 10SM SCT050 34/21 A2988 RMK AO2 SLP112 T03390211 $
KMEI 232058Z 21009KT 10SM FEW060 34/21 A2989 RMK AO2 SLP117 T03390206 58021 $
KMEI 231958Z 23010KT 10SM BKN050 34/22 A2992 RMK AO2 SLP126 T03390217
KMEI 231858Z 25007KT 10SM CLR 33/21 A2993 RMK AO2 SLP131 T03330211
KMEI 231758Z 23012KT 200V260 10SM FEW038 32/22 A2995 RMK AO2 SLP140 T03220217 10322 20239 58001
KMEI 231658Z 22010KT 10SM SCT037 32/22 A2996 RMK AO2 SLP142 T03170217
KMEI 231558Z 26013G17KT 10SM FEW027 31/22 A2995 RMK AO2 SLP139 T03060222
KMEI 231531Z 22012KT 10SM SCT025 30/22 A2994 RMK AO2 T03000222
KMEI 231458Z 23008KT 10SM BKN022 29/22 A2996 RMK AO2 SLP141 T02890222 51009
KMEI 231358Z 23007KT 200V260 10SM OVC020 28/23 A2996 RMK AO2 SLP140 T02780228
KMEI 231325Z 23010KT 10SM BKN015 27/23 A2995 RMK AO2 T02670228
KMEI 231305Z 22011G16KT 10SM SCT011 26/23 A2994 RMK AO2 T02610228
KMEI 231258Z 22009KT 10SM SCT009 BKN013 26/23 A2995 RMK AO2 SLP137 T02610228
KMEI 231230Z 19005KT 10SM BKN009 BKN023 24/23 A2994 RMK AO2 T02440228
KMEI 231158Z 19005KT 10SM FEW010 OVC021 24/22 A2993 RMK AO2 SLP131 T02390222 10239 20217 53020
KMEI 231134Z 18005KT 10SM FEW011 BKN019 23/22 A2992 RMK AO2 T02330217
KMEI 231118Z 19005KT 10SM FEW009 23/22 A2992 RMK AO2 T02280217
KMEI 231058Z 19006KT 10SM SCT011 23/21 A2991 RMK AO2 SLP125 T02280211
KMEI 231027Z AUTO 20006KT 10SM BKN011 22/21 A2990 RMK AO2 T02220211
KMEI 230958Z AUTO 20008KT 10SM CLR 22/21 A2989 RMK AO2 SLP117 T02220206
KMEI 230858Z AUTO 19007KT 10SM CLR 22/21 A2987 RMK AO2 SLP111 T02220206 53002
KMEI 230758Z AUTO 20006KT 10SM CLR 22/21 A2987 RMK AO2 SLP109 T02220206
KMEI 230658Z AUTO 19004KT 10SM CLR 22/20 A2987 RMK AO2 SLP109 T02220200
KMEI 230558Z AUTO 20004KT 10SM CLR 22/21 A2986 RMK AO2 SLP108 60000 T02220206 10283 20222 403110222 51013
KMEI 230458Z AUTO 19005KT 10SM CLR 23/20 A2986 RMK AO2 SLP107 T02280200
KMEI 230358Z AUTO 21003KT 10SM CLR 23/21 A2984 RMK AO2 SLP102 T02280206
KMEI 230258Z 00000KT 10SM CLR 23/21 A2982 RMK AO2 SLP095 60000 T02330206 56008
KMEI 230158Z 18006KT 10SM FEW075 FEW090 BKN110 24/21 A2983 RMK AO2 RAE05B47E57 SLP096 P0000 T02390206
KMEI 230058Z 18012KT 10SM -RA SCT120 26/21 A2980 RMK AO2 LTG DSNT SE AND S RAB25E40B51 PRESFR SLP087 P0000 T02560211
KMEI 230048Z 21011KT 10SM FEW022 BKN110 26/21 A2982 RMK AO2 LTG DSNT ALQDS RAB25E40 P0000 T02610211
KMEI 230041Z 21011G19KT 10SM VCTS SCT022 SCT027 BKN110 26/21 A2982 RMK AO2 LTG DSNT SE-SW RAB25E40 PRESFR P0000 T02610211
KMEI 230027Z 23015G24KT 10SM VCTS -RA BKN021 BKN029 27/23 A2986 RMK AO2 LTG DSNT SE-SW RAB25 P0000 T02720228
KMEI 222358Z 23007KT 10SM VCTS CLR 28/24 A2985 RMK AO2 LTG DSNT S-W SLP103 T02830244 10311 20283 51008
KMEI 222354Z 23007KT 10SM VCTS CLR 28/24 A2985 RMK AO2 LTG DSNT S-W
KMEI 222258Z 24004KT 10SM CLR 29/24 A2985 RMK AO2 LTG DSNT S SLP103 T02940244
KMEI 222158Z 21011KT 10SM CLR 30/24 A2982 RMK AO2 SLP095 T03000239
KMEI 222058Z 24008KT 10SM FEW030 BKN037 BKN044 31/24 A2984 RMK AO2 SLP101 T03060239 55020
KMEI 221958Z 22010KT 10SM SCT028 SCT033 BKN046 31/24 A2984 RMK AO2 PRESFR SLP099 T03060239
KMEI 221858Z 21011KT 10SM FEW026 BKN033 BKN045 30/24 A2986 RMK AO2 PRESFR SLP105 T03000239
KMEI 221758Z 23008KT 10SM BKN030 BKN037 30/24 A2990 RMK AO2 SLP121 T03000239 10306 20244 55003
KMEI 221743Z 22008KT 10SM SCT026 OVC032 30/23 A2990 RMK AO2 T03000233
KMEI 221711Z 21014KT 10SM BKN022 BKN027 31/24 A2989 RMK AO2 T03060239
KMEI 221658Z 19011G19KT 10SM SCT021 BKN035 31/24 A2988 RMK AO2 SLP114 T03060244
KMEI 221642Z 21009KT 10SM FEW017 SCT027 OVC035 29/24 A2990 RMK AO2 T02940239
KMEI 221558Z 23008KT 10SM BKN016 OVC023 28/23 A2991 RMK AO2 SLP125 T02780233
KMEI 221553Z 23006KT 10SM BKN016 OVC020 27/23 A2991 RMK AO2
KMEI 221458Z 20009KT 10SM OVC010 27/23 A2989 RMK AO2 SLP117 T02670233 56005
KMEI 221456Z 21009KT 10SM OVC010 27/23 A2989 RMK AO2
KMEI 221358Z 22007KT 9SM OVC006 26/23 A2990 RMK AO2 SLP121 T02560233
KMEI 221258Z 21005KT 8SM OVC006 25/23 A2990 RMK AO2 SLP122 T02500233
KMEI 221158Z 21006KT 9SM BKN006 OVC010 24/23 A2990 RMK AO2 SLP121 70001 T02440228 10261 20239 51009
KMEI 221135Z 20006KT 8SM BKN006 24/23 A2989 RMK AO2 CIG 004V010 T02390228
KMEI 221058Z 20005KT 8SM FEW004 FEW042 24/23 A2989 RMK AO2 SLP119 T02390228
KMEI 220958Z AUTO 19005KT 10SM BKN045 24/23 A2988 RMK AO2 SLP116 T02440228